sensor_id;sensor_type;location;lat;lon;timestamp;temperature;humidity
8269;DHT22;4174;48.304;16.364;2022-08-21T00:05:00;18.30;99.90
8269;DHT22;4174;48.304;16.364;2022-08-21T00:11:03;18.30;99.90
8269;DHT22;4174;48.304;16.364;2022-08-21T00:17:05;18.30;99.90
8269;DHT22;4174;48.304;16.364;2022-08-21T00:23:07;18.30;99.90
8269;DHT22;4174;48.304;16.364;2022-08-21T00:29:09;18.20;99.90
8269;DHT22;4174;48.304;16.364;2022-08-21T00:35:13;18.20;99.90
8269;DHT22;4174;48.304;16.364;2022-08-21T00:41:14;18.20;99.90
8269;DHT22;4174;48.304;16.364;2022-08-21T00:47:17;18.20;99.90
8269;DHT22;4174;48.304;16.364;2022-08-21T00:53:20;18.20;99.90
8269;DHT22;4174;48.304;16.364;2022-08-21T00:59:22;18.30;99.90
8269;DHT22;4174;48.304;16.364;2022-08-21T01:05:26;18.40;99.90
8269;DHT22;4174;48.304;16.364;2022-08-21T01:11:28;18.40;99.90
8269;DHT22;4174;48.304;16.364;2022-08-21T01:17:31;18.50;99.90
8269;DHT22;4174;48.304;16.364;2022-08-21T01:23:34;18.60;99.90
8269;DHT22;4174;48.304;16.364;2022-08-21T01:29:38;18.60;99.90
8269;DHT22;4174;48.304;16.364;2022-08-21T01:35:40;18.70;99.90
8269;DHT22;4174;48.304;16.364;2022-08-21T01:41:42;18.70;99.90
8269;DHT22;4174;48.304;16.364;2022-08-21T01:47:45;18.80;99.90
8269;DHT22;4174;48.304;16.364;2022-08-21T01:53:47;18.70;99.90
8269;DHT22;4174;48.304;16.364;2022-08-21T01:59:51;18.70;99.90
8269;DHT22;4174;48.304;16.364;2022-08-21T02:05:54;18.70;99.90
8269;DHT22;4174;48.304;16.364;2022-08-21T02:11:56;18.60;99.90
8269;DHT22;4174;48.304;16.364;2022-08-21T02:18:01;18.30;99.90
8269;DHT22;4174;48.304;16.364;2022-08-21T02:24:03;18.30;99.90
8269;DHT22;4174;48.304;16.364;2022-08-21T02:30:07;18.30;99.90
8269;DHT22;4174;48.304;16.364;2022-08-21T02:36:10;18.20;99.90
8269;DHT22;4174;48.304;16.364;2022-08-21T02:42:12;18.10;99.90
8269;DHT22;4174;48.304;16.364;2022-08-21T02:48:17;18.10;99.90
8269;DHT22;4174;48.304;16.364;2022-08-21T02:54:20;18.10;99.90
8269;DHT22;4174;48.304;16.364;2022-08-21T03:00:23;18.20;99.90
8269;DHT22;4174;48.304;16.364;2022-08-21T03:06:25;18.10;99.90
8269;DHT22;4174;48.304;16.364;2022-08-21T03:12:29;18.00;99.90
8269;DHT22;4174;48.304;16.364;2022-08-21T03:18:32;18.00;99.90
8269;DHT22;4174;48.304;16.364;2022-08-21T03:24:34;18.00;99.90
8269;DHT22;4174;48.304;16.364;2022-08-21T03:30:37;18.00;99.90
8269;DHT22;4174;48.304;16.364;2022-08-21T03:36:40;18.00;99.90
8269;DHT22;4174;48.304;16.364;2022-08-21T03:42:43;18.00;99.90
8269;DHT22;4174;48.304;16.364;2022-08-21T03:48:45;18.00;99.90
8269;DHT22;4174;48.304;16.364;2022-08-21T03:54:48;18.10;99.90
8269;DHT22;4174;48.304;16.364;2022-08-21T04:00:51;18.10;99.90
8269;DHT22;4174;48.304;16.364;2022-08-21T04:06:53;18.10;99.90
8269;DHT22;4174;48.304;16.364;2022-08-21T04:12:56;18.10;99.90
8269;DHT22;4174;48.304;16.364;2022-08-21T04:18:59;18.20;99.90
8269;DHT22;4174;48.304;16.364;2022-08-21T04:25:02;18.20;99.90
8269;DHT22;4174;48.304;16.364;2022-08-21T04:31:08;18.30;99.90
8269;DHT22;4174;48.304;16.364;2022-08-21T04:37:10;18.30;99.90
8269;DHT22;4174;48.304;16.364;2022-08-21T04:43:13;18.30;99.90
8269;DHT22;4174;48.304;16.364;2022-08-21T04:49:15;18.50;99.90
8269;DHT22;4174;48.304;16.364;2022-08-21T04:55:18;18.60;99.90
8269;DHT22;4174;48.304;16.364;2022-08-21T05:01:22;19.00;99.90
8269;DHT22;4174;48.304;16.364;2022-08-21T05:07:25;18.90;99.90
8269;DHT22;4174;48.304;16.364;2022-08-21T05:13:26;18.90;99.90
8269;DHT22;4174;48.304;16.364;2022-08-21T05:19:28;19.10;99.90
8269;DHT22;4174;48.304;16.364;2022-08-21T05:25:31;19.10;99.90
8269;DHT22;4174;48.304;16.364;2022-08-21T05:31:35;19.20;99.90
8269;DHT22;4174;48.304;16.364;2022-08-21T05:37:37;19.20;99.90
8269;DHT22;4174;48.304;16.364;2022-08-21T05:43:41;19.30;99.90
8269;DHT22;4174;48.304;16.364;2022-08-21T05:49:44;19.30;99.90
8269;DHT22;4174;48.304;16.364;2022-08-21T05:55:48;19.40;99.90
8269;DHT22;4174;48.304;16.364;2022-08-21T06:01:51;19.40;99.90
8269;DHT22;4174;48.304;16.364;2022-08-21T06:07:56;19.40;99.90
8269;DHT22;4174;48.304;16.364;2022-08-21T06:13:59;19.40;99.90
8269;DHT22;4174;48.304;16.364;2022-08-21T06:20:02;19.40;99.90
8269;DHT22;4174;48.304;16.364;2022-08-21T06:26:07;19.40;99.90
8269;DHT22;4174;48.304;16.364;2022-08-21T06:32:10;19.50;99.90
8269;DHT22;4174;48.304;16.364;2022-08-21T06:38:11;19.60;99.90
8269;DHT22;4174;48.304;16.364;2022-08-21T06:44:15;19.80;99.90
8269;DHT22;4174;48.304;16.364;2022-08-21T06:50:16;19.80;99.90
8269;DHT22;4174;48.304;16.364;2022-08-21T06:56:20;19.90;99.90
8269;DHT22;4174;48.304;16.364;2022-08-21T07:02:23;19.90;99.90
8269;DHT22;4174;48.304;16.364;2022-08-21T07:08:26;19.80;99.90
8269;DHT22;4174;48.304;16.364;2022-08-21T07:14:29;19.90;99.90
8269;DHT22;4174;48.304;16.364;2022-08-21T07:20:32;20.00;99.90
8269;DHT22;4174;48.304;16.364;2022-08-21T07:26:35;19.90;99.90
8269;DHT22;4174;48.304;16.364;2022-08-21T07:32:38;19.90;99.90
8269;DHT22;4174;48.304;16.364;2022-08-21T07:38:41;19.90;99.90
8269;DHT22;4174;48.304;16.364;2022-08-21T07:44:44;19.80;99.90
8269;DHT22;4174;48.304;16.364;2022-08-21T07:50:47;19.90;99.90
8269;DHT22;4174;48.304;16.364;2022-08-21T07:56:51;20.10;99.90
8269;DHT22;4174;48.304;16.364;2022-08-21T08:02:54;20.30;99.90
8269;DHT22;4174;48.304;16.364;2022-08-21T08:08:56;20.50;99.90
8269;DHT22;4174;48.304;16.364;2022-08-21T08:15:00;20.30;99.90
8269;DHT22;4174;48.304;16.364;2022-08-21T08:21:03;20.20;99.90
8269;DHT22;4174;48.304;16.364;2022-08-21T08:27:05;20.10;99.90
8269;DHT22;4174;48.304;16.364;2022-08-21T08:33:08;20.10;99.90
8269;DHT22;4174;48.304;16.364;2022-08-21T08:39:10;20.20;99.90
8269;DHT22;4174;48.304;16.364;2022-08-21T08:45:15;20.40;99.90
8269;DHT22;4174;48.304;16.364;2022-08-21T08:51:18;20.50;99.90
8269;DHT22;4174;48.304;16.364;2022-08-21T08:57:22;20.70;99.90
8269;DHT22;4174;48.304;16.364;2022-08-21T09:03:24;20.90;99.90
8269;DHT22;4174;48.304;16.364;2022-08-21T09:09:34;20.70;99.90
8269;DHT22;4174;48.304;16.364;2022-08-21T09:16:11;20.50;99.90
8269;DHT22;4174;48.304;16.364;2022-08-21T09:22:13;20.30;99.90
8269;DHT22;4174;48.304;16.364;2022-08-21T09:28:16;20.00;99.90
8269;DHT22;4174;48.304;16.364;2022-08-21T09:34:26;19.90;99.90
8269;DHT22;4174;48.304;16.364;2022-08-21T09:40:31;20.40;99.90
8269;DHT22;4174;48.304;16.364;2022-08-21T09:46:49;21.30;99.90
8269;DHT22;4174;48.304;16.364;2022-08-21T09:52:45;21.90;99.90
8269;DHT22;4174;48.304;16.364;2022-08-21T09:58:47;22.10;99.90
8269;DHT22;4174;48.304;16.364;2022-08-21T10:04:57;22.10;99.90
8269;DHT22;4174;48.304;16.364;2022-08-21T10:11:05;21.80;99.90
8269;DHT22;4174;48.304;16.364;2022-08-21T10:17:07;21.50;99.90
8269;DHT22;4174;48.304;16.364;2022-08-21T10:23:14;21.00;99.90
8269;DHT22;4174;48.304;16.364;2022-08-21T10:35:36;20.70;99.90
8269;DHT22;4174;48.304;16.364;2022-08-21T10:47:49;20.40;99.90
8269;DHT22;4174;48.304;16.364;2022-08-21T10:53:54;20.50;99.90
8269;DHT22;4174;48.304;16.364;2022-08-21T11:00:07;20.50;99.90
8269;DHT22;4174;48.304;16.364;2022-08-21T11:06:16;20.30;99.90
8269;DHT22;4174;48.304;16.364;2022-08-21T11:12:24;21.40;99.90
8269;DHT22;4174;48.304;16.364;2022-08-21T11:18:41;22.70;99.90
8269;DHT22;4174;48.304;16.364;2022-08-21T11:24:47;24.30;99.90
8269;DHT22;4174;48.304;16.364;2022-08-21T11:37:04;23.20;99.90
8269;DHT22;4174;48.304;16.364;2022-08-21T11:43:17;23.20;99.90
8269;DHT22;4174;48.304;16.364;2022-08-21T11:49:33;22.70;99.90
8269;DHT22;4174;48.304;16.364;2022-08-21T11:55:39;21.90;99.90
8269;DHT22;4174;48.304;16.364;2022-08-21T12:01:50;21.90;99.90
8269;DHT22;4174;48.304;16.364;2022-08-21T12:14:12;23.50;99.90
8269;DHT22;4174;48.304;16.364;2022-08-21T12:20:18;23.30;99.90
8269;DHT22;4174;48.304;16.364;2022-08-21T12:26:35;23.00;99.90
8269;DHT22;4174;48.304;16.364;2022-08-21T12:32:46;22.40;99.90
8269;DHT22;4174;48.304;16.364;2022-08-21T12:38:52;21.30;99.90
8269;DHT22;4174;48.304;16.364;2022-08-21T12:44:56;21.30;99.90
8269;DHT22;4174;48.304;16.364;2022-08-21T12:51:03;21.00;99.90
8269;DHT22;4174;48.304;16.364;2022-08-21T12:57:01;20.70;99.90
8269;DHT22;4174;48.304;16.364;2022-08-21T13:03:03;20.80;99.90
8269;DHT22;4174;48.304;16.364;2022-08-21T13:09:08;20.90;99.90
8269;DHT22;4174;48.304;16.364;2022-08-21T13:15:08;20.80;99.90
8269;DHT22;4174;48.304;16.364;2022-08-21T13:21:13;20.80;99.90
8269;DHT22;4174;48.304;16.364;2022-08-21T13:27:18;21.30;99.90
8269;DHT22;4174;48.304;16.364;2022-08-21T13:33:21;21.30;99.90
8269;DHT22;4174;48.304;16.364;2022-08-21T13:39:22;21.70;99.90
8269;DHT22;4174;48.304;16.364;2022-08-21T13:45:26;21.90;99.90
8269;DHT22;4174;48.304;16.364;2022-08-21T13:51:26;22.10;99.90
8269;DHT22;4174;48.304;16.364;2022-08-21T13:57:31;22.70;99.90
8269;DHT22;4174;48.304;16.364;2022-08-21T14:03:35;23.00;99.90
8269;DHT22;4174;48.304;16.364;2022-08-21T14:09:41;22.90;99.90
8269;DHT22;4174;48.304;16.364;2022-08-21T14:15:42;22.80;99.90
8269;DHT22;4174;48.304;16.364;2022-08-21T14:21:45;23.00;99.90
8269;DHT22;4174;48.304;16.364;2022-08-21T14:27:52;23.20;99.90
8269;DHT22;4174;48.304;16.364;2022-08-21T14:33:53;23.10;99.90
8269;DHT22;4174;48.304;16.364;2022-08-21T14:39:56;23.00;99.90
8269;DHT22;4174;48.304;16.364;2022-08-21T14:45:59;22.80;99.90
8269;DHT22;4174;48.304;16.364;2022-08-21T14:52:03;22.10;99.90
8269;DHT22;4174;48.304;16.364;2022-08-21T14:58:05;22.10;99.90
8269;DHT22;4174;48.304;16.364;2022-08-21T15:04:08;22.00;99.90
8269;DHT22;4174;48.304;16.364;2022-08-21T15:10:12;21.80;99.90
8269;DHT22;4174;48.304;16.364;2022-08-21T15:16:14;21.80;99.90
8269;DHT22;4174;48.304;16.364;2022-08-21T15:22:17;21.70;99.90
8269;DHT22;4174;48.304;16.364;2022-08-21T15:28:20;21.70;99.90
8269;DHT22;4174;48.304;16.364;2022-08-21T15:34:23;21.70;99.90
8269;DHT22;4174;48.304;16.364;2022-08-21T15:40:25;21.70;99.90
8269;DHT22;4174;48.304;16.364;2022-08-21T15:46:28;21.80;99.90
8269;DHT22;4174;48.304;16.364;2022-08-21T15:52:31;21.70;99.90
8269;DHT22;4174;48.304;16.364;2022-08-21T15:58:34;21.60;99.90
8269;DHT22;4174;48.304;16.364;2022-08-21T16:04:37;21.50;99.90
8269;DHT22;4174;48.304;16.364;2022-08-21T16:10:40;21.30;99.90
8269;DHT22;4174;48.304;16.364;2022-08-21T16:16:42;21.20;99.90
8269;DHT22;4174;48.304;16.364;2022-08-21T16:22:46;21.20;99.90
8269;DHT22;4174;48.304;16.364;2022-08-21T16:28:48;21.10;99.90
8269;DHT22;4174;48.304;16.364;2022-08-21T16:34:50;21.10;99.90
8269;DHT22;4174;48.304;16.364;2022-08-21T16:40:53;21.10;99.90
8269;DHT22;4174;48.304;16.364;2022-08-21T16:46:55;21.00;99.90
8269;DHT22;4174;48.304;16.364;2022-08-21T16:52:58;21.00;99.90
8269;DHT22;4174;48.304;16.364;2022-08-21T16:59:01;20.90;99.90
8269;DHT22;4174;48.304;16.364;2022-08-21T17:05:03;20.90;99.90
8269;DHT22;4174;48.304;16.364;2022-08-21T17:11:07;20.80;99.90
8269;DHT22;4174;48.304;16.364;2022-08-21T17:17:09;20.80;99.90
8269;DHT22;4174;48.304;16.364;2022-08-21T17:23:11;20.70;99.90
8269;DHT22;4174;48.304;16.364;2022-08-21T17:29:23;20.70;99.90
8269;DHT22;4174;48.304;16.364;2022-08-21T17:35:16;20.70;99.90
8269;DHT22;4174;48.304;16.364;2022-08-21T17:41:20;20.60;99.90
8269;DHT22;4174;48.304;16.364;2022-08-21T17:47:23;20.60;99.90
8269;DHT22;4174;48.304;16.364;2022-08-21T17:53:25;20.60;99.90
8269;DHT22;4174;48.304;16.364;2022-08-21T17:59:29;20.50;99.90
8269;DHT22;4174;48.304;16.364;2022-08-21T18:05:31;20.50;99.90
8269;DHT22;4174;48.304;16.364;2022-08-21T18:11:34;20.50;99.90
8269;DHT22;4174;48.304;16.364;2022-08-21T18:17:36;20.50;99.90
8269;DHT22;4174;48.304;16.364;2022-08-21T18:23:39;20.40;99.90
8269;DHT22;4174;48.304;16.364;2022-08-21T18:29:42;20.40;99.90
8269;DHT22;4174;48.304;16.364;2022-08-21T18:35:44;20.40;99.90
8269;DHT22;4174;48.304;16.364;2022-08-21T18:41:47;20.30;99.90
8269;DHT22;4174;48.304;16.364;2022-08-21T18:47:50;20.30;99.90
8269;DHT22;4174;48.304;16.364;2022-08-21T18:53:51;20.30;99.90
8269;DHT22;4174;48.304;16.364;2022-08-21T18:59:55;20.30;99.90
8269;DHT22;4174;48.304;16.364;2022-08-21T19:05:56;20.30;99.90
8269;DHT22;4174;48.304;16.364;2022-08-21T19:11:59;20.30;99.90
8269;DHT22;4174;48.304;16.364;2022-08-21T19:18:02;20.30;99.90
8269;DHT22;4174;48.304;16.364;2022-08-21T19:24:04;20.20;99.90
8269;DHT22;4174;48.304;16.364;2022-08-21T19:30:07;20.20;99.90
8269;DHT22;4174;48.304;16.364;2022-08-21T19:36:11;20.20;99.90
8269;DHT22;4174;48.304;16.364;2022-08-21T19:42:13;20.10;99.90
8269;DHT22;4174;48.304;16.364;2022-08-21T19:48:16;20.00;99.90
8269;DHT22;4174;48.304;16.364;2022-08-21T19:54:21;20.00;99.90
8269;DHT22;4174;48.304;16.364;2022-08-21T20:00:22;20.00;99.90
8269;DHT22;4174;48.304;16.364;2022-08-21T20:06:26;20.00;99.90
8269;DHT22;4174;48.304;16.364;2022-08-21T20:12:29;20.00;99.90
8269;DHT22;4174;48.304;16.364;2022-08-21T20:18:32;20.00;99.90
8269;DHT22;4174;48.304;16.364;2022-08-21T20:24:34;20.00;99.90
8269;DHT22;4174;48.304;16.364;2022-08-21T20:30:36;19.90;99.90
8269;DHT22;4174;48.304;16.364;2022-08-21T20:36:39;19.80;99.90
8269;DHT22;4174;48.304;16.364;2022-08-21T20:42:44;19.50;99.90
8269;DHT22;4174;48.304;16.364;2022-08-21T20:48:44;19.00;99.90
8269;DHT22;4174;48.304;16.364;2022-08-21T20:54:48;18.60;99.90
8269;DHT22;4174;48.304;16.364;2022-08-21T21:00:49;18.20;99.90
8269;DHT22;4174;48.304;16.364;2022-08-21T21:06:52;18.00;99.90
8269;DHT22;4174;48.304;16.364;2022-08-21T21:12:56;17.90;99.90
8269;DHT22;4174;48.304;16.364;2022-08-21T21:18:58;17.80;99.90
8269;DHT22;4174;48.304;16.364;2022-08-21T21:25:03;17.80;99.90
8269;DHT22;4174;48.304;16.364;2022-08-21T21:31:04;17.80;99.90
8269;DHT22;4174;48.304;16.364;2022-08-21T21:37:10;17.80;99.90
8269;DHT22;4174;48.304;16.364;2022-08-21T21:43:44;17.80;99.90
8269;DHT22;4174;48.304;16.364;2022-08-21T21:49:39;17.80;99.90
8269;DHT22;4174;48.304;16.364;2022-08-21T21:55:50;17.70;99.90
8269;DHT22;4174;48.304;16.364;2022-08-21T22:02:13;17.60;99.90
8269;DHT22;4174;48.304;16.364;2022-08-21T22:08:19;17.60;99.90
8269;DHT22;4174;48.304;16.364;2022-08-21T22:14:18;17.60;99.90
8269;DHT22;4174;48.304;16.364;2022-08-21T22:20:29;17.60;99.90
8269;DHT22;4174;48.304;16.364;2022-08-21T22:26:45;17.50;99.90
8269;DHT22;4174;48.304;16.364;2022-08-21T22:32:46;17.50;99.90
8269;DHT22;4174;48.304;16.364;2022-08-21T22:38:46;17.40;99.90
8269;DHT22;4174;48.304;16.364;2022-08-21T22:44:51;17.30;99.90
8269;DHT22;4174;48.304;16.364;2022-08-21T22:50:53;17.30;99.90
8269;DHT22;4174;48.304;16.364;2022-08-21T22:57:11;17.30;99.90
8269;DHT22;4174;48.304;16.364;2022-08-21T23:03:15;17.20;99.90
8269;DHT22;4174;48.304;16.364;2022-08-21T23:09:20;17.10;99.90
8269;DHT22;4174;48.304;16.364;2022-08-21T23:15:20;17.10;99.90
8269;DHT22;4174;48.304;16.364;2022-08-21T23:21:30;17.00;99.90
8269;DHT22;4174;48.304;16.364;2022-08-21T23:40:40;16.90;99.90
8269;DHT22;4174;48.304;16.364;2022-08-21T23:46:58;16.90;99.90
8269;DHT22;4174;48.304;16.364;2022-08-21T23:52:54;16.90;99.90
8269;DHT22;4174;48.304;16.364;2022-08-21T23:59:07;16.80;99.90
